sensor_id;sensor_type;location;lat;lon;timestamp;temperature;humidity
6988;DHT22;3534;49.960;8.018;2023-03-01T00:00:48;4.60;99.90
6988;DHT22;3534;49.960;8.018;2023-03-01T00:03:16;4.60;99.90
6988;DHT22;3534;49.960;8.018;2023-03-01T00:05:44;4.60;99.90
6988;DHT22;3534;49.960;8.018;2023-03-01T00:08:11;4.60;99.90
6988;DHT22;3534;49.960;8.018;2023-03-01T00:10:37;4.60;99.90
6988;DHT22;3534;49.960;8.018;2023-03-01T00:13:04;4.60;99.90
6988;DHT22;3534;49.960;8.018;2023-03-01T00:15:31;4.60;99.90
6988;DHT22;3534;49.960;8.018;2023-03-01T00:17:58;4.60;99.90
6988;DHT22;3534;49.960;8.018;2023-03-01T00:20:26;4.60;99.90
6988;DHT22;3534;49.960;8.018;2023-03-01T00:22:52;4.60;99.90
6988;DHT22;3534;49.960;8.018;2023-03-01T00:25:19;4.60;99.90
6988;DHT22;3534;49.960;8.018;2023-03-01T00:27:46;4.60;99.90
6988;DHT22;3534;49.960;8.018;2023-03-01T00:30:14;4.60;99.90
6988;DHT22;3534;49.960;8.018;2023-03-01T00:32:41;4.60;99.90
6988;DHT22;3534;49.960;8.018;2023-03-01T00:35:08;4.60;99.90
6988;DHT22;3534;49.960;8.018;2023-03-01T00:37:36;4.60;99.90
6988;DHT22;3534;49.960;8.018;2023-03-01T00:40:03;4.50;99.90
6988;DHT22;3534;49.960;8.018;2023-03-01T00:42:31;4.50;99.90
6988;DHT22;3534;49.960;8.018;2023-03-01T00:44:58;4.50;99.90
6988;DHT22;3534;49.960;8.018;2023-03-01T00:47:24;4.50;99.90
6988;DHT22;3534;49.960;8.018;2023-03-01T00:49:51;4.50;99.90
6988;DHT22;3534;49.960;8.018;2023-03-01T00:52:18;4.50;99.90
6988;DHT22;3534;49.960;8.018;2023-03-01T00:54:46;4.50;99.90
6988;DHT22;3534;49.960;8.018;2023-03-01T00:57:12;4.50;99.90
6988;DHT22;3534;49.960;8.018;2023-03-01T00:59:39;4.50;99.90
6988;DHT22;3534;49.960;8.018;2023-03-01T01:02:06;4.50;99.90
6988;DHT22;3534;49.960;8.018;2023-03-01T01:04:32;4.40;99.90
6988;DHT22;3534;49.960;8.018;2023-03-01T01:06:59;4.50;99.90
6988;DHT22;3534;49.960;8.018;2023-03-01T01:09:25;4.40;99.90
6988;DHT22;3534;49.960;8.018;2023-03-01T01:11:53;4.40;99.90
6988;DHT22;3534;49.960;8.018;2023-03-01T01:14:20;4.40;99.90
6988;DHT22;3534;49.960;8.018;2023-03-01T01:16:47;4.40;99.90
6988;DHT22;3534;49.960;8.018;2023-03-01T01:19:14;4.40;99.90
6988;DHT22;3534;49.960;8.018;2023-03-01T01:21:40;4.40;99.90
6988;DHT22;3534;49.960;8.018;2023-03-01T01:24:08;4.40;99.90
6988;DHT22;3534;49.960;8.018;2023-03-01T01:26:35;4.40;99.90
6988;DHT22;3534;49.960;8.018;2023-03-01T01:29:04;4.40;99.90
6988;DHT22;3534;49.960;8.018;2023-03-01T01:31:32;4.30;99.90
6988;DHT22;3534;49.960;8.018;2023-03-01T01:34:00;4.30;99.90
6988;DHT22;3534;49.960;8.018;2023-03-01T01:36:27;4.20;99.90
6988;DHT22;3534;49.960;8.018;2023-03-01T01:38:54;4.20;99.90
6988;DHT22;3534;49.960;8.018;2023-03-01T01:41:21;4.20;99.90
6988;DHT22;3534;49.960;8.018;2023-03-01T01:44:08;4.10;99.90
6988;DHT22;3534;49.960;8.018;2023-03-01T01:46:39;4.00;99.90
6988;DHT22;3534;49.960;8.018;2023-03-01T01:49:10;4.00;99.90
6988;DHT22;3534;49.960;8.018;2023-03-01T01:51:45;4.00;99.90
6988;DHT22;3534;49.960;8.018;2023-03-01T01:54:18;4.00;99.90
6988;DHT22;3534;49.960;8.018;2023-03-01T01:56:49;4.00;99.90
6988;DHT22;3534;49.960;8.018;2023-03-01T01:59:17;4.00;99.90
6988;DHT22;3534;49.960;8.018;2023-03-01T02:01:45;3.90;99.90
6988;DHT22;3534;49.960;8.018;2023-03-01T02:04:11;3.90;99.90
6988;DHT22;3534;49.960;8.018;2023-03-01T02:06:41;3.90;99.90
6988;DHT22;3534;49.960;8.018;2023-03-01T02:09:13;3.90;99.90
6988;DHT22;3534;49.960;8.018;2023-03-01T02:11:41;3.90;99.90
6988;DHT22;3534;49.960;8.018;2023-03-01T02:14:09;3.80;99.90
6988;DHT22;3534;49.960;8.018;2023-03-01T02:16:35;3.90;99.90
6988;DHT22;3534;49.960;8.018;2023-03-01T02:19:05;3.90;99.90
6988;DHT22;3534;49.960;8.018;2023-03-01T02:21:38;3.90;99.90
6988;DHT22;3534;49.960;8.018;2023-03-01T02:24:17;3.90;99.90
6988;DHT22;3534;49.960;8.018;2023-03-01T02:26:50;3.90;99.90
6988;DHT22;3534;49.960;8.018;2023-03-01T02:29:19;3.80;99.90
6988;DHT22;3534;49.960;8.018;2023-03-01T02:31:47;3.90;99.90
6988;DHT22;3534;49.960;8.018;2023-03-01T02:34:15;3.90;99.90
6988;DHT22;3534;49.960;8.018;2023-03-01T02:36:46;3.90;99.90
6988;DHT22;3534;49.960;8.018;2023-03-01T02:39:17;3.90;99.90
6988;DHT22;3534;49.960;8.018;2023-03-01T02:41:50;3.80;99.90
6988;DHT22;3534;49.960;8.018;2023-03-01T02:44:19;3.80;99.90
6988;DHT22;3534;49.960;8.018;2023-03-01T02:46:48;3.90;99.90
6988;DHT22;3534;49.960;8.018;2023-03-01T02:49:19;3.90;99.90
6988;DHT22;3534;49.960;8.018;2023-03-01T02:52:07;3.90;99.90
6988;DHT22;3534;49.960;8.018;2023-03-01T02:54:40;3.90;99.90
6988;DHT22;3534;49.960;8.018;2023-03-01T02:57:08;3.90;99.90
6988;DHT22;3534;49.960;8.018;2023-03-01T02:59:37;3.90;99.90
6988;DHT22;3534;49.960;8.018;2023-03-01T03:02:06;3.90;99.90
6988;DHT22;3534;49.960;8.018;2023-03-01T03:04:33;3.80;99.90
6988;DHT22;3534;49.960;8.018;2023-03-01T03:06:59;3.80;99.90
6988;DHT22;3534;49.960;8.018;2023-03-01T03:09:26;3.80;99.90
6988;DHT22;3534;49.960;8.018;2023-03-01T03:11:53;3.80;99.90
6988;DHT22;3534;49.960;8.018;2023-03-01T03:14:20;3.80;99.90
6988;DHT22;3534;49.960;8.018;2023-03-01T03:16:49;3.80;99.90
6988;DHT22;3534;49.960;8.018;2023-03-01T03:19:17;3.80;99.90
6988;DHT22;3534;49.960;8.018;2023-03-01T03:21:44;3.80;99.90
6988;DHT22;3534;49.960;8.018;2023-03-01T03:24:11;3.80;99.90
6988;DHT22;3534;49.960;8.018;2023-03-01T03:26:37;3.80;99.90
6988;DHT22;3534;49.960;8.018;2023-03-01T03:29:04;3.80;99.90
6988;DHT22;3534;49.960;8.018;2023-03-01T03:31:31;3.80;99.90
6988;DHT22;3534;49.960;8.018;2023-03-01T03:33:59;3.80;99.90
6988;DHT22;3534;49.960;8.018;2023-03-01T03:36:26;3.80;99.90
6988;DHT22;3534;49.960;8.018;2023-03-01T03:38:52;3.80;99.90
6988;DHT22;3534;49.960;8.018;2023-03-01T03:41:19;3.80;99.90
6988;DHT22;3534;49.960;8.018;2023-03-01T03:43:46;3.70;99.90
6988;DHT22;3534;49.960;8.018;2023-03-01T03:46:14;3.70;99.90
6988;DHT22;3534;49.960;8.018;2023-03-01T03:48:42;3.70;99.90
6988;DHT22;3534;49.960;8.018;2023-03-01T03:51:11;3.80;99.90
6988;DHT22;3534;49.960;8.018;2023-03-01T03:53:38;3.80;99.90
6988;DHT22;3534;49.960;8.018;2023-03-01T03:56:06;3.70;99.90
6988;DHT22;3534;49.960;8.018;2023-03-01T03:58:33;3.70;99.90
6988;DHT22;3534;49.960;8.018;2023-03-01T04:01:00;3.70;99.90
6988;DHT22;3534;49.960;8.018;2023-03-01T04:03:28;3.70;99.90
6988;DHT22;3534;49.960;8.018;2023-03-01T04:05:57;3.70;99.90
6988;DHT22;3534;49.960;8.018;2023-03-01T04:08:25;3.70;99.90
6988;DHT22;3534;49.960;8.018;2023-03-01T04:10:57;3.60;99.90
6988;DHT22;3534;49.960;8.018;2023-03-01T04:13:25;3.60;99.90
6988;DHT22;3534;49.960;8.018;2023-03-01T04:15:53;3.60;99.90
6988;DHT22;3534;49.960;8.018;2023-03-01T04:18:21;3.70;99.90
6988;DHT22;3534;49.960;8.018;2023-03-01T04:20:48;3.60;99.90
6988;DHT22;3534;49.960;8.018;2023-03-01T04:23:18;3.50;99.90
6988;DHT22;3534;49.960;8.018;2023-03-01T04:25:48;3.50;99.90
6988;DHT22;3534;49.960;8.018;2023-03-01T04:28:21;3.60;99.90
6988;DHT22;3534;49.960;8.018;2023-03-01T04:30:49;3.60;99.90
6988;DHT22;3534;49.960;8.018;2023-03-01T04:33:16;3.60;99.90
6988;DHT22;3534;49.960;8.018;2023-03-01T04:35:43;3.60;99.90
6988;DHT22;3534;49.960;8.018;2023-03-01T04:38:10;3.60;99.90
6988;DHT22;3534;49.960;8.018;2023-03-01T04:40:37;3.70;99.90
6988;DHT22;3534;49.960;8.018;2023-03-01T04:43:05;3.70;99.90
6988;DHT22;3534;49.960;8.018;2023-03-01T04:45:32;3.70;99.90
6988;DHT22;3534;49.960;8.018;2023-03-01T04:48:00;3.70;99.90
6988;DHT22;3534;49.960;8.018;2023-03-01T04:50:27;3.70;99.90
6988;DHT22;3534;49.960;8.018;2023-03-01T04:52:55;3.60;99.90
6988;DHT22;3534;49.960;8.018;2023-03-01T04:55:24;3.60;99.90
6988;DHT22;3534;49.960;8.018;2023-03-01T04:57:51;3.60;99.90
6988;DHT22;3534;49.960;8.018;2023-03-01T05:00:20;3.60;99.90
6988;DHT22;3534;49.960;8.018;2023-03-01T05:02:48;3.60;99.90
6988;DHT22;3534;49.960;8.018;2023-03-01T05:05:19;3.40;99.90
6988;DHT22;3534;49.960;8.018;2023-03-01T05:07:46;3.30;99.90
6988;DHT22;3534;49.960;8.018;2023-03-01T05:10:13;3.20;99.90
6988;DHT22;3534;49.960;8.018;2023-03-01T05:12:40;3.10;99.90
6988;DHT22;3534;49.960;8.018;2023-03-01T05:15:07;3.00;99.90
6988;DHT22;3534;49.960;8.018;2023-03-01T05:17:35;3.10;99.90
6988;DHT22;3534;49.960;8.018;2023-03-01T05:20:02;3.20;99.90
6988;DHT22;3534;49.960;8.018;2023-03-01T05:22:32;3.00;99.90
6988;DHT22;3534;49.960;8.018;2023-03-01T05:24:59;2.90;99.90
6988;DHT22;3534;49.960;8.018;2023-03-01T05:27:26;2.80;99.90
6988;DHT22;3534;49.960;8.018;2023-03-01T05:29:54;2.70;99.90
6988;DHT22;3534;49.960;8.018;2023-03-01T05:32:21;2.80;99.90
6988;DHT22;3534;49.960;8.018;2023-03-01T05:34:49;2.80;99.90
6988;DHT22;3534;49.960;8.018;2023-03-01T05:37:17;2.90;99.90
6988;DHT22;3534;49.960;8.018;2023-03-01T05:39:44;3.00;99.90
6988;DHT22;3534;49.960;8.018;2023-03-01T05:42:11;3.10;99.90
6988;DHT22;3534;49.960;8.018;2023-03-01T05:44:38;3.20;99.90
6988;DHT22;3534;49.960;8.018;2023-03-01T05:47:05;3.30;99.90
6988;DHT22;3534;49.960;8.018;2023-03-01T05:49:32;3.40;99.90
6988;DHT22;3534;49.960;8.018;2023-03-01T05:52:00;3.50;99.90
6988;DHT22;3534;49.960;8.018;2023-03-01T05:54:26;3.50;99.90
6988;DHT22;3534;49.960;8.018;2023-03-01T05:56:53;3.50;99.90
6988;DHT22;3534;49.960;8.018;2023-03-01T05:59:20;3.40;99.90
6988;DHT22;3534;49.960;8.018;2023-03-01T06:01:46;3.40;99.90
6988;DHT22;3534;49.960;8.018;2023-03-01T06:04:13;3.50;99.90
6988;DHT22;3534;49.960;8.018;2023-03-01T06:06:40;3.30;99.90
6988;DHT22;3534;49.960;8.018;2023-03-01T06:09:08;3.30;99.90
6988;DHT22;3534;49.960;8.018;2023-03-01T06:11:36;3.30;99.90
6988;DHT22;3534;49.960;8.018;2023-03-01T06:14:03;3.20;99.90
6988;DHT22;3534;49.960;8.018;2023-03-01T06:16:31;3.10;99.90
6988;DHT22;3534;49.960;8.018;2023-03-01T06:18:58;3.10;99.90
6988;DHT22;3534;49.960;8.018;2023-03-01T06:21:25;3.20;99.90
6988;DHT22;3534;49.960;8.018;2023-03-01T06:23:51;3.10;99.90
6988;DHT22;3534;49.960;8.018;2023-03-01T06:26:19;3.20;99.90
6988;DHT22;3534;49.960;8.018;2023-03-01T06:28:46;3.10;99.90
6988;DHT22;3534;49.960;8.018;2023-03-01T06:31:13;3.10;99.90
6988;DHT22;3534;49.960;8.018;2023-03-01T06:33:40;3.20;99.90
6988;DHT22;3534;49.960;8.018;2023-03-01T06:36:07;3.20;99.90
6988;DHT22;3534;49.960;8.018;2023-03-01T06:38:35;3.20;99.90
6988;DHT22;3534;49.960;8.018;2023-03-01T06:41:02;3.30;99.90
6988;DHT22;3534;49.960;8.018;2023-03-01T06:43:30;3.30;99.90
6988;DHT22;3534;49.960;8.018;2023-03-01T06:45:56;3.40;99.90
6988;DHT22;3534;49.960;8.018;2023-03-01T06:48:23;3.40;99.90
6988;DHT22;3534;49.960;8.018;2023-03-01T06:50:50;3.40;99.90
6988;DHT22;3534;49.960;8.018;2023-03-01T06:53:16;3.30;99.90
6988;DHT22;3534;49.960;8.018;2023-03-01T06:55:43;3.30;99.90
6988;DHT22;3534;49.960;8.018;2023-03-01T06:58:10;3.20;99.90
6988;DHT22;3534;49.960;8.018;2023-03-01T07:00:38;3.10;99.90
6988;DHT22;3534;49.960;8.018;2023-03-01T07:03:06;3.00;99.90
6988;DHT22;3534;49.960;8.018;2023-03-01T07:05:33;3.00;99.90
6988;DHT22;3534;49.960;8.018;2023-03-01T07:08:00;3.00;99.90
6988;DHT22;3534;49.960;8.018;2023-03-01T07:10:27;2.80;99.90
6988;DHT22;3534;49.960;8.018;2023-03-01T07:12:55;2.80;99.90
6988;DHT22;3534;49.960;8.018;2023-03-01T07:15:22;2.80;99.90
6988;DHT22;3534;49.960;8.018;2023-03-01T07:17:50;2.90;99.90
6988;DHT22;3534;49.960;8.018;2023-03-01T07:20:17;2.90;99.90
6988;DHT22;3534;49.960;8.018;2023-03-01T07:22:44;3.00;99.90
6988;DHT22;3534;49.960;8.018;2023-03-01T07:25:11;3.00;99.90
6988;DHT22;3534;49.960;8.018;2023-03-01T07:27:37;3.00;99.90
6988;DHT22;3534;49.960;8.018;2023-03-01T07:30:05;3.10;99.90
6988;DHT22;3534;49.960;8.018;2023-03-01T07:32:32;3.20;99.90
6988;DHT22;3534;49.960;8.018;2023-03-01T07:35:00;3.20;99.90
6988;DHT22;3534;49.960;8.018;2023-03-01T07:37:27;3.20;99.90
6988;DHT22;3534;49.960;8.018;2023-03-01T07:39:53;3.20;99.90
6988;DHT22;3534;49.960;8.018;2023-03-01T07:42:20;3.30;99.90
6988;DHT22;3534;49.960;8.018;2023-03-01T07:44:47;3.30;99.90
6988;DHT22;3534;49.960;8.018;2023-03-01T07:47:13;3.40;99.90
6988;DHT22;3534;49.960;8.018;2023-03-01T07:49:40;3.30;99.90
6988;DHT22;3534;49.960;8.018;2023-03-01T07:52:09;3.40;99.90
6988;DHT22;3534;49.960;8.018;2023-03-01T07:54:36;3.30;99.90
6988;DHT22;3534;49.960;8.018;2023-03-01T07:57:03;3.40;99.90
6988;DHT22;3534;49.960;8.018;2023-03-01T07:59:30;3.50;99.90
6988;DHT22;3534;49.960;8.018;2023-03-01T08:01:57;3.60;99.90
6988;DHT22;3534;49.960;8.018;2023-03-01T08:04:23;3.70;99.90
6988;DHT22;3534;49.960;8.018;2023-03-01T08:06:52;3.80;99.90
6988;DHT22;3534;49.960;8.018;2023-03-01T08:09:20;4.00;99.90
6988;DHT22;3534;49.960;8.018;2023-03-01T08:11:47;4.20;99.90
6988;DHT22;3534;49.960;8.018;2023-03-01T08:14:13;4.50;99.90
6988;DHT22;3534;49.960;8.018;2023-03-01T08:16:40;4.60;99.90
6988;DHT22;3534;49.960;8.018;2023-03-01T08:19:08;4.80;99.90
6988;DHT22;3534;49.960;8.018;2023-03-01T08:21:36;4.90;99.90
6988;DHT22;3534;49.960;8.018;2023-03-01T08:24:04;5.00;99.90
6988;DHT22;3534;49.960;8.018;2023-03-01T08:26:33;5.00;99.90
6988;DHT22;3534;49.960;8.018;2023-03-01T08:29:00;5.10;99.90
6988;DHT22;3534;49.960;8.018;2023-03-01T08:31:29;5.20;99.90
6988;DHT22;3534;49.960;8.018;2023-03-01T08:33:58;5.20;99.90
6988;DHT22;3534;49.960;8.018;2023-03-01T08:36:27;5.30;99.90
6988;DHT22;3534;49.960;8.018;2023-03-01T08:38:54;5.40;99.90
6988;DHT22;3534;49.960;8.018;2023-03-01T08:41:21;5.50;99.90
6988;DHT22;3534;49.960;8.018;2023-03-01T08:43:49;5.40;99.90
6988;DHT22;3534;49.960;8.018;2023-03-01T08:46:16;5.60;99.90
6988;DHT22;3534;49.960;8.018;2023-03-01T08:48:42;5.60;99.90
6988;DHT22;3534;49.960;8.018;2023-03-01T08:51:11;5.60;99.90
6988;DHT22;3534;49.960;8.018;2023-03-01T08:53:38;5.50;99.90
6988;DHT22;3534;49.960;8.018;2023-03-01T08:56:05;5.60;99.90
6988;DHT22;3534;49.960;8.018;2023-03-01T08:58:32;5.60;99.90
6988;DHT22;3534;49.960;8.018;2023-03-01T09:01:00;5.50;99.90
6988;DHT22;3534;49.960;8.018;2023-03-01T09:03:27;5.60;99.90
6988;DHT22;3534;49.960;8.018;2023-03-01T09:05:59;5.60;99.90
6988;DHT22;3534;49.960;8.018;2023-03-01T09:08:26;5.70;99.90
6988;DHT22;3534;49.960;8.018;2023-03-01T09:10:53;5.80;99.90
6988;DHT22;3534;49.960;8.018;2023-03-01T09:13:20;5.70;99.90
6988;DHT22;3534;49.960;8.018;2023-03-01T09:15:49;5.70;99.90
6988;DHT22;3534;49.960;8.018;2023-03-01T09:18:17;5.80;99.90
6988;DHT22;3534;49.960;8.018;2023-03-01T09:20:43;5.80;99.90
6988;DHT22;3534;49.960;8.018;2023-03-01T09:23:10;5.90;99.90
6988;DHT22;3534;49.960;8.018;2023-03-01T09:25:36;5.90;99.90
6988;DHT22;3534;49.960;8.018;2023-03-01T09:28:03;5.90;99.90
6988;DHT22;3534;49.960;8.018;2023-03-01T09:30:30;6.00;99.90
6988;DHT22;3534;49.960;8.018;2023-03-01T09:32:57;6.00;99.90
6988;DHT22;3534;49.960;8.018;2023-03-01T09:35:24;6.00;99.90
6988;DHT22;3534;49.960;8.018;2023-03-01T09:37:51;6.10;99.90
6988;DHT22;3534;49.960;8.018;2023-03-01T09:40:21;6.10;99.90
6988;DHT22;3534;49.960;8.018;2023-03-01T09:42:53;6.20;99.90
6988;DHT22;3534;49.960;8.018;2023-03-01T09:45:27;6.20;99.90
6988;DHT22;3534;49.960;8.018;2023-03-01T09:47:55;6.30;99.90
6988;DHT22;3534;49.960;8.018;2023-03-01T09:50:24;6.40;99.90
6988;DHT22;3534;49.960;8.018;2023-03-01T09:53:00;6.50;99.90
6988;DHT22;3534;49.960;8.018;2023-03-01T09:55:31;6.40;99.90
6988;DHT22;3534;49.960;8.018;2023-03-01T09:58:06;6.40;99.90
6988;DHT22;3534;49.960;8.018;2023-03-01T10:00:47;6.50;99.90
6988;DHT22;3534;49.960;8.018;2023-03-01T10:03:17;6.60;99.90
6988;DHT22;3534;49.960;8.018;2023-03-01T10:05:56;6.60;99.90
6988;DHT22;3534;49.960;8.018;2023-03-01T10:08:28;6.70;99.90
6988;DHT22;3534;49.960;8.018;2023-03-01T10:10:58;6.70;99.90
6988;DHT22;3534;49.960;8.018;2023-03-01T10:13:29;6.70;99.90
6988;DHT22;3534;49.960;8.018;2023-03-01T10:16:04;6.70;99.90
6988;DHT22;3534;49.960;8.018;2023-03-01T10:18:33;6.70;99.90
6988;DHT22;3534;49.960;8.018;2023-03-01T10:21:12;6.80;99.90
6988;DHT22;3534;49.960;8.018;2023-03-01T10:23:39;6.80;99.90
6988;DHT22;3534;49.960;8.018;2023-03-01T10:26:16;6.90;99.90
6988;DHT22;3534;49.960;8.018;2023-03-01T10:28:54;6.90;99.90
6988;DHT22;3534;49.960;8.018;2023-03-01T10:31:27;7.00;99.90
6988;DHT22;3534;49.960;8.018;2023-03-01T10:34:04;7.10;99.90
6988;DHT22;3534;49.960;8.018;2023-03-01T10:36:33;7.10;99.90
6988;DHT22;3534;49.960;8.018;2023-03-01T10:39:12;7.10;99.90
6988;DHT22;3534;49.960;8.018;2023-03-01T10:41:58;7.20;99.90
6988;DHT22;3534;49.960;8.018;2023-03-01T10:44:46;7.20;99.90
6988;DHT22;3534;49.960;8.018;2023-03-01T10:47:17;7.30;99.90
6988;DHT22;3534;49.960;8.018;2023-03-01T10:49:56;7.40;99.90
6988;DHT22;3534;49.960;8.018;2023-03-01T10:52:30;7.50;99.90
6988;DHT22;3534;49.960;8.018;2023-03-01T10:54:58;7.50;99.90
6988;DHT22;3534;49.960;8.018;2023-03-01T10:57:32;7.60;99.90
6988;DHT22;3534;49.960;8.018;2023-03-01T11:00:16;7.70;99.90
6988;DHT22;3534;49.960;8.018;2023-03-01T11:02:47;7.90;99.90
6988;DHT22;3534;49.960;8.018;2023-03-01T11:05:19;7.90;99.90
6988;DHT22;3534;49.960;8.018;2023-03-01T11:07:49;7.90;99.90
6988;DHT22;3534;49.960;8.018;2023-03-01T11:10:18;7.90;99.90
6988;DHT22;3534;49.960;8.018;2023-03-01T11:12:44;8.00;99.90
6988;DHT22;3534;49.960;8.018;2023-03-01T11:15:21;8.10;99.90
6988;DHT22;3534;49.960;8.018;2023-03-01T11:17:48;8.30;99.90
6988;DHT22;3534;49.960;8.018;2023-03-01T11:20:23;8.40;99.90
6988;DHT22;3534;49.960;8.018;2023-03-01T11:22:53;8.50;99.90
6988;DHT22;3534;49.960;8.018;2023-03-01T11:25:24;8.60;99.90
6988;DHT22;3534;49.960;8.018;2023-03-01T11:27:52;8.70;99.90
6988;DHT22;3534;49.960;8.018;2023-03-01T11:30:22;8.80;99.90
6988;DHT22;3534;49.960;8.018;2023-03-01T11:32:57;8.90;99.90
6988;DHT22;3534;49.960;8.018;2023-03-01T11:35:27;9.10;99.90
6988;DHT22;3534;49.960;8.018;2023-03-01T11:38:04;9.30;99.90
6988;DHT22;3534;49.960;8.018;2023-03-01T11:40:34;9.50;99.90
6988;DHT22;3534;49.960;8.018;2023-03-01T11:43:09;9.70;99.90
6988;DHT22;3534;49.960;8.018;2023-03-01T11:45:47;9.90;99.90
6988;DHT22;3534;49.960;8.018;2023-03-01T11:48:38;10.20;99.90
6988;DHT22;3534;49.960;8.018;2023-03-01T11:51:12;10.30;99.90
6988;DHT22;3534;49.960;8.018;2023-03-01T11:54:01;10.50;99.90
6988;DHT22;3534;49.960;8.018;2023-03-01T11:56:34;10.70;99.90
6988;DHT22;3534;49.960;8.018;2023-03-01T11:59:17;11.00;99.90
6988;DHT22;3534;49.960;8.018;2023-03-01T12:01:56;11.10;99.90
6988;DHT22;3534;49.960;8.018;2023-03-01T12:05:11;11.40;99.90
6988;DHT22;3534;49.960;8.018;2023-03-01T12:07:47;11.60;99.90
6988;DHT22;3534;49.960;8.018;2023-03-01T12:10:28;11.90;99.90
6988;DHT22;3534;49.960;8.018;2023-03-01T12:13:28;12.00;99.90
6988;DHT22;3534;49.960;8.018;2023-03-01T12:16:14;12.30;99.90
6988;DHT22;3534;49.960;8.018;2023-03-01T12:18:58;12.60;99.90
6988;DHT22;3534;49.960;8.018;2023-03-01T12:21:35;12.70;99.90
6988;DHT22;3534;49.960;8.018;2023-03-01T12:24:30;13.10;99.90
6988;DHT22;3534;49.960;8.018;2023-03-01T12:27:14;13.30;98.20
6988;DHT22;3534;49.960;8.018;2023-03-01T12:29:49;13.60;99.80
6988;DHT22;3534;49.960;8.018;2023-03-01T12:32:35;13.80;99.90
6988;DHT22;3534;49.960;8.018;2023-03-01T12:35:27;14.00;97.50
6988;DHT22;3534;49.960;8.018;2023-03-01T12:38:07;14.20;98.60
6988;DHT22;3534;49.960;8.018;2023-03-01T12:40:53;14.50;99.50
6988;DHT22;3534;49.960;8.018;2023-03-01T12:43:38;14.60;99.00
6988;DHT22;3534;49.960;8.018;2023-03-01T12:46:19;14.80;90.70
6988;DHT22;3534;49.960;8.018;2023-03-01T12:48:53;15.00;93.90
6988;DHT22;3534;49.960;8.018;2023-03-01T12:51:24;15.10;96.80
6988;DHT22;3534;49.960;8.018;2023-03-01T12:53:54;15.30;99.90
6988;DHT22;3534;49.960;8.018;2023-03-01T12:56:23;15.40;95.00
6988;DHT22;3534;49.960;8.018;2023-03-01T12:58:59;15.70;98.80
6988;DHT22;3534;49.960;8.018;2023-03-01T13:01:36;15.80;99.90
6988;DHT22;3534;49.960;8.018;2023-03-01T13:07:09;16.30;94.80
6988;DHT22;3534;49.960;8.018;2023-03-01T13:09:40;16.40;96.10
6988;DHT22;3534;49.960;8.018;2023-03-01T13:12:45;16.50;94.30
6988;DHT22;3534;49.960;8.018;2023-03-01T13:15:28;16.80;99.90
6988;DHT22;3534;49.960;8.018;2023-03-01T13:17:57;17.00;99.90
6988;DHT22;3534;49.960;8.018;2023-03-01T13:20:27;17.20;99.90
6988;DHT22;3534;49.960;8.018;2023-03-01T13:23:05;17.50;96.40
6988;DHT22;3534;49.960;8.018;2023-03-01T13:25:33;17.50;95.40
6988;DHT22;3534;49.960;8.018;2023-03-01T13:28:38;17.60;91.30
6988;DHT22;3534;49.960;8.018;2023-03-01T13:31:08;17.80;82.90
6988;DHT22;3534;49.960;8.018;2023-03-01T13:33:45;18.00;97.00
6988;DHT22;3534;49.960;8.018;2023-03-01T13:36:45;18.10;90.20
6988;DHT22;3534;49.960;8.018;2023-03-01T13:39:29;18.20;90.10
6988;DHT22;3534;49.960;8.018;2023-03-01T13:41:57;18.40;99.90
6988;DHT22;3534;49.960;8.018;2023-03-01T13:44:29;18.50;99.90
6988;DHT22;3534;49.960;8.018;2023-03-01T13:46:59;18.60;99.90
6988;DHT22;3534;49.960;8.018;2023-03-01T13:49:29;18.70;79.90
6988;DHT22;3534;49.960;8.018;2023-03-01T13:51:57;19.00;88.40
6988;DHT22;3534;49.960;8.018;2023-03-01T13:54:28;19.10;91.20
6988;DHT22;3534;49.960;8.018;2023-03-01T13:56:56;19.30;91.30
6988;DHT22;3534;49.960;8.018;2023-03-01T13:59:24;19.50;75.80
6988;DHT22;3534;49.960;8.018;2023-03-01T14:01:55;19.60;86.10
6988;DHT22;3534;49.960;8.018;2023-03-01T14:04:25;19.70;95.30
6988;DHT22;3534;49.960;8.018;2023-03-01T14:07:09;19.90;97.80
6988;DHT22;3534;49.960;8.018;2023-03-01T14:09:39;19.80;99.90
6988;DHT22;3534;49.960;8.018;2023-03-01T14:12:21;20.10;92.40
6988;DHT22;3534;49.960;8.018;2023-03-01T14:14:58;20.10;78.00
6988;DHT22;3534;49.960;8.018;2023-03-01T14:17:49;20.20;86.30
6988;DHT22;3534;49.960;8.018;2023-03-01T14:20:22;20.20;79.80
6988;DHT22;3534;49.960;8.018;2023-03-01T14:22:53;20.30;86.50
6988;DHT22;3534;49.960;8.018;2023-03-01T14:25:23;20.30;97.60
6988;DHT22;3534;49.960;8.018;2023-03-01T14:28:11;20.40;99.30
6988;DHT22;3534;49.960;8.018;2023-03-01T14:30:42;20.50;99.90
6988;DHT22;3534;49.960;8.018;2023-03-01T14:33:20;20.60;83.90
6988;DHT22;3534;49.960;8.018;2023-03-01T14:35:58;20.60;99.90
6988;DHT22;3534;49.960;8.018;2023-03-01T14:38:30;20.60;88.80
6988;DHT22;3534;49.960;8.018;2023-03-01T14:41:00;20.90;82.80
6988;DHT22;3534;49.960;8.018;2023-03-01T14:43:29;21.00;99.90
6988;DHT22;3534;49.960;8.018;2023-03-01T14:45:57;21.10;95.50
6988;DHT22;3534;49.960;8.018;2023-03-01T14:48:24;21.10;87.60
6988;DHT22;3534;49.960;8.018;2023-03-01T14:50:51;21.10;99.90
6988;DHT22;3534;49.960;8.018;2023-03-01T14:53:21;21.20;96.20
6988;DHT22;3534;49.960;8.018;2023-03-01T14:55:52;21.20;97.10
6988;DHT22;3534;49.960;8.018;2023-03-01T14:58:21;21.10;85.70
6988;DHT22;3534;49.960;8.018;2023-03-01T15:00:51;21.10;94.70
6988;DHT22;3534;49.960;8.018;2023-03-01T15:03:24;20.90;89.40
6988;DHT22;3534;49.960;8.018;2023-03-01T15:05:52;20.80;93.50
6988;DHT22;3534;49.960;8.018;2023-03-01T15:08:23;20.60;93.20
6988;DHT22;3534;49.960;8.018;2023-03-01T15:10:58;20.50;68.40
6988;DHT22;3534;49.960;8.018;2023-03-01T15:13:28;20.30;91.80
6988;DHT22;3534;49.960;8.018;2023-03-01T15:16:02;20.20;72.00
6988;DHT22;3534;49.960;8.018;2023-03-01T15:18:30;20.10;67.00
6988;DHT22;3534;49.960;8.018;2023-03-01T15:21:06;19.90;76.40
6988;DHT22;3534;49.960;8.018;2023-03-01T15:23:34;19.80;73.60
6988;DHT22;3534;49.960;8.018;2023-03-01T15:26:03;19.80;71.60
6988;DHT22;3534;49.960;8.018;2023-03-01T15:28:32;19.90;71.50
6988;DHT22;3534;49.960;8.018;2023-03-01T15:31:02;19.90;68.20
6988;DHT22;3534;49.960;8.018;2023-03-01T15:33:35;19.90;63.90
6988;DHT22;3534;49.960;8.018;2023-03-01T15:36:04;19.90;76.90
6988;DHT22;3534;49.960;8.018;2023-03-01T15:38:54;19.80;63.80
6988;DHT22;3534;49.960;8.018;2023-03-01T15:41:23;19.80;62.80
6988;DHT22;3534;49.960;8.018;2023-03-01T15:43:51;19.90;60.80
6988;DHT22;3534;49.960;8.018;2023-03-01T15:46:24;19.90;59.90
6988;DHT22;3534;49.960;8.018;2023-03-01T15:48:53;19.70;78.60
6988;DHT22;3534;49.960;8.018;2023-03-01T15:51:28;19.40;67.30
6988;DHT22;3534;49.960;8.018;2023-03-01T15:53:59;19.00;69.90
6988;DHT22;3534;49.960;8.018;2023-03-01T15:56:26;18.60;64.10
6988;DHT22;3534;49.960;8.018;2023-03-01T15:58:57;18.10;65.60
6988;DHT22;3534;49.960;8.018;2023-03-01T16:01:24;17.70;66.00
6988;DHT22;3534;49.960;8.018;2023-03-01T16:03:51;17.30;93.80
6988;DHT22;3534;49.960;8.018;2023-03-01T16:06:19;17.00;99.90
6988;DHT22;3534;49.960;8.018;2023-03-01T16:08:45;16.70;98.00
6988;DHT22;3534;49.960;8.018;2023-03-01T16:11:17;16.60;99.90
6988;DHT22;3534;49.960;8.018;2023-03-01T16:13:44;16.30;99.90
6988;DHT22;3534;49.960;8.018;2023-03-01T16:16:12;16.20;86.50
6988;DHT22;3534;49.960;8.018;2023-03-01T16:18:42;15.90;75.80
6988;DHT22;3534;49.960;8.018;2023-03-01T16:21:15;15.80;76.60
6988;DHT22;3534;49.960;8.018;2023-03-01T16:23:43;15.50;85.60
6988;DHT22;3534;49.960;8.018;2023-03-01T16:26:11;15.40;98.80
6988;DHT22;3534;49.960;8.018;2023-03-01T16:28:39;15.30;99.90
6988;DHT22;3534;49.960;8.018;2023-03-01T16:31:06;15.00;87.30
6988;DHT22;3534;49.960;8.018;2023-03-01T16:33:33;14.80;80.40
6988;DHT22;3534;49.960;8.018;2023-03-01T16:36:00;14.70;78.90